KBRO/BRO METAR and TAF weather

Enter ICAO airport designator
Station Type Date Time Source
KBRO METAR 2020/11/25 21:53 UTC NOAA

KBRO 252153Z 05012KT 10SM SCT027 BKN037 OVC047 27/21 A2994 RMK AO2 SLP136 T02720211


Station Type Date Time Source
KBRO Decoded METAR 2020/11/25 21:53 UTC NOAA

BROWNSVILLE/SOUTH PADRE IS, TX, United States (KBRO) 25-54N 97-25W 5M
Nov 25, 2020 - 04:53 PM EST / 2020.11.25 2153 UTC
Wind: from the NE (050 degrees) at 14 MPH (12 KT):0
Visibility: 10 mile(s):0
Sky conditions: overcast
Temperature: 81.0 F (27.2 C)
Dew Point: 70.0 F (21.1 C)
Relative Humidity: 69%
Pressure (altimeter): 29.94 in. Hg (1013 hPa)
ob: KBRO 252153Z 05012KT 10SM SCT027 BKN037 OVC047 27/21 A2994 RMK AO2 SLP136 T02720211
cycle: 22

Station Type Date Time Source
KBRO TAF 2020/11/25 22:57 UTC NOAA

TAF
AMD KBRO 252157Z 2522/2618 05012KT P6SM SCT027 BKN035 OVC045
FM260300 03006KT P6SM SCT018 BKN200
FM260600 32006KT P6SM SCT011 BKN013
FM261000 23005KT P6SM SCT004 BKN028

Example: see airport list